Time;durP1;ratioP1;P1;durP2;ratioP2;P2;SDS_P1;SDS_P2;PMS_P1;PMS_P2;Temp;Humidity;BMP_temperature;BMP_pressure;BME280_temperature;BME280_humidity;BME280_pressure;Samples;Min_cycle;Max_cycle;Signal;HPM_P1;HPM_P2
2023/06/01 00:01:42;;;;;;;4.53;2.20;;;15.20;99.90;;;;;;4972135;28;20200;-74
2023/06/01 00:04:15;;;;;;;7.30;3.42;;;15.20;99.90;;;;;;4969762;28;20211;-73
2023/06/01 00:06:46;;;;;;;5.10;2.95;;;15.30;99.90;;;;;;4975290;28;20204;-74
2023/06/01 00:09:17;;;;;;;5.05;2.75;;;15.30;99.90;;;;;;4977193;28;20656;-74
2023/06/01 00:11:48;;;;;;;5.97;2.47;;;15.40;99.90;;;;;;4977157;28;20188;-73
2023/06/01 00:14:19;;;;;;;6.70;2.30;;;15.40;99.90;;;;;;4977590;28;20546;-74
2023/06/01 00:16:51;;;;;;;5.07;2.25;;;15.40;99.90;;;;;;4995760;28;20199;-74
2023/06/01 00:19:24;;;;;;;4.03;2.15;;;15.50;99.90;;;;;;4992003;28;20224;-74
2023/06/01 00:21:56;;;;;;;4.88;2.75;;;15.60;99.90;;;;;;4974566;28;20196;-74
2023/06/01 00:24:28;;;;;;;5.18;2.45;;;15.70;99.90;;;;;;4973945;28;20200;-74
2023/06/01 00:26:59;;;;;;;7.82;2.92;;;15.80;99.90;;;;;;4976510;28;20546;-73
2023/06/01 00:29:30;;;;;;;4.82;2.13;;;15.90;99.90;;;;;;4977049;28;20196;-74
2023/06/01 00:32:01;;;;;;;5.35;2.28;;;16.00;99.90;;;;;;4976859;28;20315;-73
2023/06/01 00:34:34;;;;;;;4.97;2.00;;;16.10;99.90;;;;;;4976746;28;20193;-73
2023/06/01 00:37:05;;;;;;;3.38;2.00;;;16.10;99.90;;;;;;4973500;28;20196;-72
2023/06/01 00:39:37;;;;;;;3.63;1.50;;;16.20;99.90;;;;;;4973997;28;20197;-73
2023/06/01 00:42:08;;;;;;;6.10;3.80;;;16.20;99.90;;;;;;4976423;28;20254;-73
2023/06/01 00:44:39;;;;;;;3.45;1.70;;;16.30;99.90;;;;;;4975641;28;20678;-74
2023/06/01 00:47:11;;;;;;;4.28;1.58;;;16.30;99.90;;;;;;4976543;28;20188;-73
2023/06/01 00:49:45;;;;;;;2.85;1.58;;;16.30;99.90;;;;;;4976791;28;20192;-74
2023/06/01 00:52:16;;;;;;;6.10;1.42;;;16.30;99.90;;;;;;4976732;28;20201;-73
2023/06/01 00:54:47;;;;;;;4.05;1.30;;;16.30;99.90;;;;;;4976050;28;20550;-73
2023/06/01 00:57:20;;;;;;;5.05;1.25;;;16.40;99.90;;;;;;4976410;28;20573;-72
2023/06/01 00:59:52;;;;;;;1.95;1.45;;;16.40;99.90;;;;;;4976569;28;20228;-73
2023/06/01 01:02:23;;;;;;;1.60;1.20;;;16.40;99.90;;;;;;4976250;28;20197;-72
2023/06/01 01:04:59;;;;;;;5.35;1.58;;;16.40;99.90;;;;;;4976464;28;20648;-73
2023/06/01 01:07:41;;;;;;;3.45;1.50;;;16.50;99.90;;;;;;4976148;28;20219;-72
2023/06/01 01:10:16;;;;;;;3.28;1.40;;;16.50;99.90;;;;;;4976032;28;20196;-73
2023/06/01 01:12:53;;;;;;;2.00;1.30;;;16.50;99.90;;;;;;4976366;28;20203;-73
2023/06/01 01:15:28;;;;;;;2.88;1.70;;;16.50;99.90;;;;;;4976689;28;20204;-73
2023/06/01 01:18:05;;;;;;;4.18;1.40;;;16.60;99.90;;;;;;4973695;28;21687;-73
2023/06/01 01:20:43;;;;;;;4.78;1.83;;;16.60;99.90;;;;;;4975160;28;20203;-73
2023/06/01 01:23:38;;;;;;;2.55;1.58;;;16.60;99.90;;;;;;4973725;28;20200;-72
2023/06/01 01:26:17;;;;;;;3.25;1.58;;;16.60;99.90;;;;;;4975288;28;20211;-73
2023/06/01 01:28:53;;;;;;;4.38;1.50;;;16.60;99.90;;;;;;4972272;28;20714;-73
2023/06/01 01:31:27;;;;;;;3.95;1.67;;;16.60;99.90;;;;;;4974736;28;20208;-72
2023/06/01 01:33:59;;;;;;;5.28;1.55;;;16.60;99.90;;;;;;4963160;28;20292;-72
2023/06/01 01:36:31;;;;;;;4.15;1.60;;;16.60;99.90;;;;;;4971643;28;20685;-72
2023/06/01 01:39:02;;;;;;;3.95;1.50;;;16.60;99.90;;;;;;4969000;28;20219;-73
2023/06/01 01:41:33;;;;;;;4.00;1.70;;;16.70;99.90;;;;;;4971652;28;20196;-72
2023/06/01 01:44:07;;;;;;;3.92;1.83;;;16.70;99.90;;;;;;4973450;28;20197;-72
2023/06/01 01:46:50;;;;;;;4.13;1.85;;;16.70;99.90;;;;;;4974845;28;20617;-72
2023/06/01 01:49:25;;;;;;;3.13;1.80;;;16.80;99.90;;;;;;4962871;28;20347;-72
2023/06/01 01:52:06;;;;;;;5.18;1.92;;;16.80;99.90;;;;;;4971712;28;20204;-72
2023/06/01 01:54:39;;;;;;;7.28;2.00;;;16.80;99.90;;;;;;4970353;28;20634;-73
2023/06/01 01:57:12;;;;;;;4.47;1.65;;;16.90;99.90;;;;;;4974559;28;20211;-72
2023/06/01 01:59:46;;;;;;;3.85;1.52;;;16.90;99.90;;;;;;4972069;28;20246;-73
2023/06/01 02:02:17;;;;;;;6.25;1.50;;;17.00;99.90;;;;;;4970927;28;20199;-72
2023/06/01 02:04:49;;;;;;;3.72;1.33;;;17.00;99.90;;;;;;4973810;28;20243;-73
2023/06/01 02:07:20;;;;;;;3.60;1.40;;;17.00;99.90;;;;;;4975111;28;20201;-72
2023/06/01 02:09:51;;;;;;;4.00;1.60;;;17.10;99.90;;;;;;4972663;28;20212;-73
2023/06/01 02:12:22;;;;;;;6.63;1.58;;;17.10;99.90;;;;;;4972675;28;20208;-72
2023/06/01 02:14:55;;;;;;;4.55;1.70;;;17.20;99.90;;;;;;4972864;28;20203;-72
2023/06/01 02:17:26;;;;;;;3.65;1.90;;;17.30;99.90;;;;;;4972587;28;20231;-73
2023/06/01 02:19:57;;;;;;;3.05;1.13;;;17.30;99.90;;;;;;4975047;28;20260;-73
2023/06/01 02:22:29;;;;;;;2.35;1.10;;;17.40;99.90;;;;;;4973495;28;20611;-72
2023/06/01 02:25:00;;;;;;;3.03;1.23;;;17.50;99.90;;;;;;4973445;28;20215;-72
2023/06/01 02:27:31;;;;;;;3.53;1.50;;;17.60;99.90;;;;;;4968180;28;20206;-74
2023/06/01 02:30:06;;;;;;;3.95;1.70;;;17.70;99.90;;;;;;4959818;28;20223;-74
2023/06/01 02:32:37;;;;;;;5.45;2.00;;;17.80;99.90;;;;;;4974767;28;20282;-73
2023/06/01 02:35:08;;;;;;;3.53;1.40;;;17.90;99.90;;;;;;4973975;28;20203;-74
2023/06/01 02:37:40;;;;;;;11.57;4.63;;;18.00;99.90;;;;;;4973612;28;20200;-74
2023/06/01 02:40:12;;;;;;;3.80;1.90;;;18.00;99.90;;;;;;4973007;28;20203;-74
2023/06/01 02:42:43;;;;;;;7.30;3.38;;;18.10;99.90;;;;;;4974507;28;20219;-73
2023/06/01 02:45:16;;;;;;;5.18;0.90;;;18.20;99.90;;;;;;4971940;28;20200;-74
2023/06/01 02:47:47;;;;;;;1.35;0.60;;;18.30;99.90;;;;;;4972645;28;20283;-74
2023/06/01 02:50:18;;;;;;;1.70;0.68;;;18.30;99.90;;;;;;4972121;28;20544;-74
2023/06/01 02:52:49;;;;;;;2.42;1.27;;;18.50;99.90;;;;;;4972990;28;20207;-73
2023/06/01 02:55:20;;;;;;;2.85;1.00;;;18.50;99.90;;;;;;4976116;28;20211;-73
2023/06/01 02:57:51;;;;;;;2.40;1.00;;;18.60;99.90;;;;;;4974077;28;20246;-73
2023/06/01 03:00:25;;;;;;;2.20;0.88;;;18.60;99.90;;;;;;4971473;28;20236;-73
2023/06/01 03:02:56;;;;;;;2.88;0.70;;;18.70;99.90;;;;;;4972773;28;20200;-73
2023/06/01 03:05:29;;;;;;;2.80;0.70;;;18.70;99.90;;;;;;4973364;28;20204;-73
2023/06/01 03:08:00;;;;;;;1.42;0.60;;;18.80;99.90;;;;;;4973696;28;20279;-74
2023/06/01 03:10:32;;;;;;;2.25;0.50;;;18.90;99.90;;;;;;4974462;28;20203;-73
2023/06/01 03:13:03;;;;;;;0.60;0.60;;;18.90;99.90;;;;;;4977246;28;20200;-73
2023/06/01 03:15:37;;;;;;;3.08;0.70;;;18.90;99.90;;;;;;4977111;28;20198;-73
2023/06/01 03:18:08;;;;;;;0.98;0.70;;;18.90;99.90;;;;;;4973691;28;20275;-73
2023/06/01 03:20:39;;;;;;;1.25;0.57;;;19.00;99.90;;;;;;4977917;28;20639;-73
2023/06/01 03:23:10;;;;;;;3.03;0.95;;;19.00;99.90;;;;;;4978312;28;20200;-72
2023/06/01 03:25:41;;;;;;;1.13;0.63;;;19.00;99.90;;;;;;4976802;28;20288;-73
2023/06/01 03:28:12;;;;;;;2.22;0.65;;;19.00;99.90;;;;;;4969572;28;20220;-72
2023/06/01 03:30:46;;;;;;;1.45;0.60;;;19.00;99.90;;;;;;4967105;28;20207;-73
2023/06/01 03:33:17;;;;;;;0.93;0.70;;;19.00;99.90;;;;;;4977395;28;20208;-72
2023/06/01 03:35:49;;;;;;;1.23;0.80;;;19.00;99.90;;;;;;4976034;28;20204;-72
2023/06/01 03:38:22;;;;;;;1.63;0.77;;;19.00;99.90;;;;;;4976093;28;20204;-73
2023/06/01 03:40:53;;;;;;;1.48;0.80;;;19.00;99.90;;;;;;4975001;28;20258;-73
2023/06/01 03:43:24;;;;;;;1.40;0.60;;;19.00;99.90;;;;;;4976889;28;20204;-72
2023/06/01 03:45:57;;;;;;;2.00;0.70;;;19.00;99.90;;;;;;4977015;28;20204;-73
2023/06/01 03:48:28;;;;;;;0.77;0.60;;;19.10;99.90;;;;;;4976060;28;20216;-72
2023/06/01 03:51:00;;;;;;;1.92;0.60;;;19.10;99.90;;;;;;4973906;28;20203;-73
2023/06/01 03:53:31;;;;;;;1.67;0.95;;;19.10;99.90;;;;;;4974442;28;20208;-73
2023/06/01 03:56:02;;;;;;;1.92;1.00;;;19.10;99.90;;;;;;4974872;28;20561;-73
2023/06/01 03:58:33;;;;;;;1.48;0.70;;;19.20;99.90;;;;;;4976510;28;20231;-72
2023/06/01 04:01:07;;;;;;;2.65;0.70;;;19.20;99.90;;;;;;4977113;28;20596;-72
2023/06/01 04:03:38;;;;;;;1.27;0.70;;;19.20;99.90;;;;;;4977334;28;20196;-73
2023/06/01 04:06:12;;;;;;;2.17;0.90;;;19.10;99.90;;;;;;4973635;28;20196;-73
2023/06/01 04:08:48;;;;;;;1.15;0.60;;;19.10;99.90;;;;;;4973934;28;20212;-73
2023/06/01 04:11:19;;;;;;;1.10;0.70;;;19.00;99.90;;;;;;4975728;28;20246;-73
2023/06/01 04:13:50;;;;;;;2.83;0.90;;;19.00;99.90;;;;;;4976430;28;20196;-73
2023/06/01 04:16:24;;;;;;;1.20;0.70;;;18.90;99.90;;;;;;4974152;28;20200;-73
2023/06/01 04:18:55;;;;;;;1.95;0.80;;;18.80;99.90;;;;;;4970023;28;20223;-72
2023/06/01 04:21:27;;;;;;;3.97;0.90;;;18.70;99.90;;;;;;4975713;28;20200;-73
2023/06/01 04:23:58;;;;;;;1.23;0.88;;;18.60;99.90;;;;;;4972805;28;20201;-72
2023/06/01 04:26:31;;;;;;;1.85;0.90;;;18.60;99.90;;;;;;4976208;28;20208;-73
2023/06/01 04:29:03;;;;;;;4.07;1.10;;;18.60;99.90;;;;;;4976191;28;20786;-74
2023/06/01 04:31:36;;;;;;;2.60;1.10;;;18.60;99.90;;;;;;4974133;28;20231;-74
2023/06/01 04:34:07;;;;;;;1.92;0.95;;;18.60;99.90;;;;;;4974016;28;20192;-73
2023/06/01 04:36:39;;;;;;;3.25;1.13;;;18.60;99.90;;;;;;4975896;28;20204;-74
2023/06/01 04:39:10;;;;;;;3.88;1.20;;;18.60;99.90;;;;;;4973985;28;20200;-73
2023/06/01 04:41:41;;;;;;;1.08;0.80;;;18.70;99.90;;;;;;4975718;28;20200;-74
2023/06/01 04:44:12;;;;;;;3.58;0.98;;;18.70;99.90;;;;;;4976706;28;20667;-73
2023/06/01 04:46:47;;;;;;;3.83;0.95;;;18.80;99.90;;;;;;4975381;28;20200;-72
2023/06/01 04:49:18;;;;;;;3.88;1.20;;;18.80;99.90;;;;;;4971558;28;20267;-73
2023/06/01 04:51:51;;;;;;;4.35;1.00;;;18.80;99.90;;;;;;4973531;28;20288;-73
2023/06/01 04:54:22;;;;;;;4.13;0.90;;;18.80;99.90;;;;;;4976658;28;20206;-73
2023/06/01 04:56:54;;;;;;;3.70;1.10;;;18.80;99.90;;;;;;4975650;28;20652;-74
2023/06/01 04:59:25;;;;;;;2.65;0.90;;;18.70;99.90;;;;;;4974997;28;20232;-72
2023/06/01 05:01:58;;;;;;;3.78;1.10;;;18.70;99.90;;;;;;4978625;28;20200;-75
2023/06/01 05:04:29;;;;;;;5.88;1.20;;;18.60;99.90;;;;;;4969230;28;20200;-72
2023/06/01 05:07:00;;;;;;;4.40;1.23;;;18.70;99.90;;;;;;4972827;28;20690;-72
2023/06/01 05:09:31;;;;;;;3.35;1.10;;;18.70;99.90;;;;;;4967025;28;20231;-74
2023/06/01 05:12:02;;;;;;;4.20;1.65;;;18.80;99.90;;;;;;4974426;28;20201;-72
2023/06/01 05:14:33;;;;;;;1.70;1.20;;;18.90;99.90;;;;;;4976348;28;20196;-72
2023/06/01 05:17:06;;;;;;;2.55;1.20;;;18.90;99.90;;;;;;4973552;28;20203;-73
2023/06/01 05:19:38;;;;;;;2.78;1.00;;;19.00;99.90;;;;;;4976948;28;20203;-72
2023/06/01 05:22:09;;;;;;;2.75;1.10;;;19.10;99.90;;;;;;4974243;28;20200;-73
2023/06/01 05:24:40;;;;;;;2.95;1.20;;;19.10;99.90;;;;;;4987004;28;20215;-72
2023/06/01 05:27:11;;;;;;;3.25;1.10;;;19.10;99.90;;;;;;4974542;28;20648;-72
2023/06/01 05:29:42;;;;;;;2.33;1.00;;;19.10;99.90;;;;;;4974646;28;20227;-72
2023/06/01 05:32:15;;;;;;;3.65;1.20;;;19.20;99.90;;;;;;4975733;28;20195;-72
2023/06/01 05:34:46;;;;;;;4.82;1.00;;;19.20;99.90;;;;;;4974673;28;20200;-72
2023/06/01 05:37:17;;;;;;;1.92;1.27;;;19.30;99.90;;;;;;4974957;28;20220;-73
2023/06/01 05:39:48;;;;;;;4.53;2.40;;;19.40;99.90;;;;;;4975610;28;20542;-72
2023/06/01 05:42:19;;;;;;;2.00;1.23;;;19.50;99.90;;;;;;4975190;28;20715;-73
2023/06/01 05:44:50;;;;;;;4.07;1.30;;;19.70;99.90;;;;;;4974716;28;20196;-72
2023/06/01 05:47:23;;;;;;;2.85;1.20;;;19.70;99.90;;;;;;4975666;28;20202;-72
2023/06/01 05:49:54;;;;;;;2.13;1.20;;;19.80;99.90;;;;;;4975597;28;20219;-72
2023/06/01 05:52:26;;;;;;;2.13;1.15;;;19.80;99.90;;;;;;4974614;28;20204;-72
2023/06/01 05:54:57;;;;;;;2.60;1.25;;;19.80;99.90;;;;;;4975453;28;20207;-73
2023/06/01 05:57:28;;;;;;;2.03;1.13;;;19.80;99.90;;;;;;4974466;28;20223;-73
2023/06/01 06:00:00;;;;;;;1.35;1.00;;;19.90;99.90;;;;;;4974585;28;20242;-72
2023/06/01 06:02:33;;;;;;;3.35;1.20;;;19.90;99.90;;;;;;4975431;28;20196;-72
2023/06/01 06:05:04;;;;;;;2.13;0.90;;;19.90;99.90;;;;;;4975151;28;20565;-73
2023/06/01 06:07:35;;;;;;;2.35;1.00;;;19.90;99.90;;;;;;4992512;28;20254;-74
2023/06/01 06:10:06;;;;;;;2.88;1.13;;;19.90;99.90;;;;;;4976126;28;20224;-73
2023/06/01 06:12:38;;;;;;;1.83;0.90;;;19.90;99.90;;;;;;4975668;28;20196;-73
2023/06/01 06:15:09;;;;;;;3.08;1.08;;;19.80;99.90;;;;;;4975249;28;20193;-73
2023/06/01 06:17:42;;;;;;;5.93;1.27;;;19.80;99.90;;;;;;4974046;28;20200;-72
2023/06/01 06:20:15;;;;;;;3.92;1.27;;;19.70;99.90;;;;;;4975160;28;20555;-72
2023/06/01 06:22:46;;;;;;;3.15;1.20;;;19.50;99.90;;;;;;4975027;28;20247;-72
2023/06/01 06:25:17;;;;;;;2.50;0.95;;;19.40;99.90;;;;;;4974086;28;20208;-72
2023/06/01 06:27:48;;;;;;;2.83;1.10;;;19.20;99.90;;;;;;4974476;28;20204;-72
2023/06/01 06:30:20;;;;;;;3.85;0.95;;;19.00;99.90;;;;;;4974128;28;20564;-73
2023/06/01 06:32:53;;;;;;;2.40;1.00;;;18.80;99.90;;;;;;4975014;28;20565;-72
2023/06/01 06:35:24;;;;;;;2.47;0.88;;;18.70;99.90;;;;;;4974178;28;20208;-72
2023/06/01 06:37:55;;;;;;;9.15;1.40;;;18.60;99.90;;;;;;4974750;28;20195;-72
2023/06/01 06:40:26;;;;;;;2.28;1.17;;;18.40;99.90;;;;;;4973184;28;20207;-73
2023/06/01 06:42:57;;;;;;;2.78;1.02;;;18.20;99.90;;;;;;4974608;28;20558;-72
2023/06/01 06:45:28;;;;;;;2.92;1.10;;;18.20;99.90;;;;;;4974754;28;20199;-74
2023/06/01 06:48:01;;;;;;;3.45;1.10;;;18.10;99.90;;;;;;4974785;28;20196;-72
2023/06/01 06:50:33;;;;;;;4.78;1.00;;;18.00;99.90;;;;;;4972834;28;20215;-72
2023/06/01 06:53:04;;;;;;;3.33;1.35;;;17.90;99.90;;;;;;4974629;28;20193;-73
2023/06/01 06:55:35;;;;;;;3.17;1.30;;;17.80;99.90;;;;;;4972896;28;20218;-72
2023/06/01 06:58:06;;;;;;;4.20;1.30;;;17.70;99.90;;;;;;4956083;28;20589;-74
2023/06/01 07:00:37;;;;;;;2.45;1.20;;;17.60;99.90;;;;;;4970065;28;20708;-73
2023/06/01 07:03:10;;;;;;;3.42;1.50;;;17.50;99.90;;;;;;4973668;28;20200;-73
2023/06/01 07:05:42;;;;;;;3.38;1.63;;;17.50;99.90;;;;;;4974529;28;20259;-72
2023/06/01 07:08:13;;;;;;;2.70;1.20;;;17.40;99.90;;;;;;4973951;28;20211;-72
2023/06/01 07:10:44;;;;;;;3.63;1.45;;;17.30;99.90;;;;;;4973816;28;20227;-73
2023/06/01 07:13:15;;;;;;;2.42;1.33;;;17.20;99.90;;;;;;4972891;28;20196;-73
2023/06/01 07:15:46;;;;;;;2.90;1.27;;;17.20;99.90;;;;;;4974498;28;20192;-73
2023/06/01 07:18:19;;;;;;;4.38;1.42;;;17.10;99.90;;;;;;4974515;28;20196;-72
2023/06/01 07:20:50;;;;;;;3.70;1.95;;;17.00;99.90;;;;;;4973246;28;20560;-73
2023/06/01 07:23:21;;;;;;;4.05;1.50;;;16.90;99.90;;;;;;4975271;28;20203;-72
2023/06/01 07:25:52;;;;;;;3.72;1.80;;;16.90;99.90;;;;;;4967120;28;20201;-72
2023/06/01 07:28:25;;;;;;;5.55;1.70;;;16.80;99.90;;;;;;4959235;28;20664;-73
2023/06/01 07:30:56;;;;;;;3.55;1.75;;;16.70;99.90;;;;;;4973404;28;20331;-73
2023/06/01 07:33:29;;;;;;;3.22;1.83;;;16.70;99.90;;;;;;4962764;28;20235;-72
2023/06/01 07:36:00;;;;;;;2.42;1.63;;;16.60;99.90;;;;;;4973975;28;20196;-72
2023/06/01 07:38:31;;;;;;;3.92;1.73;;;16.60;99.90;;;;;;4973971;28;20204;-72
2023/06/01 07:41:02;;;;;;;3.55;1.70;;;16.50;99.90;;;;;;4972021;28;20199;-72
2023/06/01 07:43:33;;;;;;;2.47;1.73;;;16.50;99.90;;;;;;4969125;28;20197;-72
2023/06/01 07:46:04;;;;;;;3.38;2.00;;;16.50;99.90;;;;;;4973171;28;20197;-72
2023/06/01 07:48:39;;;;;;;6.38;1.90;;;16.40;99.90;;;;;;4973840;28;20211;-72
2023/06/01 07:51:10;;;;;;;6.63;1.90;;;16.40;99.90;;;;;;4961273;28;20747;-72
2023/06/01 07:53:41;;;;;;;4.78;1.80;;;16.30;99.90;;;;;;4974249;28;20208;-72
2023/06/01 07:56:12;;;;;;;4.40;2.00;;;16.30;99.90;;;;;;4975586;28;20201;-74
2023/06/01 07:58:44;;;;;;;3.42;1.85;;;16.30;99.90;;;;;;4978606;28;20695;-72
2023/06/01 08:01:15;;;;;;;4.63;1.80;;;16.20;99.90;;;;;;4978759;28;20197;-74
2023/06/01 08:03:50;;;;;;;6.85;1.92;;;16.20;99.90;;;;;;4974975;28;20200;-73
2023/06/01 08:06:22;;;;;;;4.28;2.10;;;16.20;99.90;;;;;;4985324;28;20282;-72
2023/06/01 08:08:53;;;;;;;7.35;2.40;;;16.20;99.90;;;;;;4975767;28;20211;-72
2023/06/01 08:11:24;;;;;;;4.60;2.08;;;16.10;99.90;;;;;;4969119;28;20292;-73
2023/06/01 08:13:56;;;;;;;6.45;2.22;;;16.10;99.90;;;;;;4976121;28;20197;-73
2023/06/01 08:16:27;;;;;;;5.40;2.40;;;16.10;99.90;;;;;;4976463;28;20200;-72
2023/06/01 08:19:01;;;;;;;3.92;2.05;;;16.10;99.90;;;;;;4975965;28;20208;-73
2023/06/01 08:21:33;;;;;;;4.80;2.42;;;16.00;99.90;;;;;;4975639;28;20196;-72
2023/06/01 08:24:04;;;;;;;6.65;2.70;;;16.00;99.90;;;;;;4976206;28;20561;-75
2023/06/01 08:26:35;;;;;;;4.55;2.58;;;15.90;99.90;;;;;;4977032;28;20200;-73
2023/06/01 08:29:06;;;;;;;4.90;2.75;;;15.90;99.90;;;;;;4977226;28;20192;-74
2023/06/01 08:31:38;;;;;;;5.15;2.55;;;15.90;99.90;;;;;;4975641;28;20224;-73
2023/06/01 08:34:11;;;;;;;6.05;2.92;;;15.90;99.90;;;;;;4974223;28;20196;-72
2023/06/01 08:36:42;;;;;;;5.10;2.95;;;15.80;99.90;;;;;;4976046;28;20207;-73
2023/06/01 08:39:25;;;;;;;5.97;3.00;;;15.80;99.90;;;;;;4976763;28;20565;-72
2023/06/01 08:42:08;;;;;;;5.15;3.05;;;15.80;99.90;;;;;;4975689;28;20202;-73
2023/06/01 08:44:40;;;;;;;6.60;3.08;;;15.70;99.90;;;;;;4976555;28;20207;-74
2023/06/01 08:47:13;;;;;;;5.50;3.22;;;15.70;99.90;;;;;;4975436;28;20205;-73
2023/06/01 08:49:48;;;;;;;7.85;3.65;;;15.70;99.90;;;;;;4975220;28;20196;-73
2023/06/01 08:52:24;;;;;;;5.10;2.97;;;15.70;99.90;;;;;;4975718;28;20207;-73
2023/06/01 08:54:56;;;;;;;5.30;3.70;;;15.60;99.90;;;;;;4976542;28;20203;-72
2023/06/01 08:57:29;;;;;;;6.25;3.90;;;15.60;99.90;;;;;;4974759;28;20224;-72
2023/06/01 09:00:02;;;;;;;9.07;4.00;;;15.50;99.90;;;;;;4969841;28;20719;-73
2023/06/01 09:02:34;;;;;;;5.65;3.50;;;15.50;99.90;;;;;;4968643;28;20648;-73
2023/06/01 09:05:11;;;;;;;7.70;4.15;;;15.50;99.90;;;;;;4975541;28;20196;-73
2023/06/01 09:07:42;;;;;;;6.10;3.65;;;15.50;99.90;;;;;;4974234;28;20690;-73
2023/06/01 09:10:14;;;;;;;7.60;4.45;;;15.50;99.90;;;;;;4974775;28;22040;-74
2023/06/01 09:12:56;;;;;;;8.75;4.25;;;15.50;99.90;;;;;;4973826;28;20200;-73
2023/06/01 09:15:27;;;;;;;9.45;5.25;;;15.50;99.90;;;;;;4969782;28;20195;-73
2023/06/01 09:18:10;;;;;;;10.07;4.95;;;15.60;99.90;;;;;;4972078;28;20599;-73
2023/06/01 09:20:45;;;;;;;8.38;4.90;;;15.70;99.90;;;;;;4972235;28;20200;-73
2023/06/01 09:23:27;;;;;;;14.35;5.43;;;15.80;99.90;;;;;;4974664;28;20742;-73
2023/06/01 09:26:11;;;;;;;9.80;5.43;;;15.80;99.90;;;;;;4974392;28;20204;-73
2023/06/01 09:29:01;;;;;;;9.52;5.50;;;15.80;99.90;;;;;;4975972;28;20208;-73
2023/06/01 09:31:42;;;;;;;9.15;5.60;;;15.90;99.90;;;;;;4975590;28;20230;-73
2023/06/01 09:34:15;;;;;;;11.65;5.30;;;15.90;99.90;;;;;;4975772;28;20723;-74
2023/06/01 09:36:49;;;;;;;9.73;5.43;;;16.00;99.90;;;;;;4975492;28;20608;-74
2023/06/01 09:39:20;;;;;;;9.10;4.50;;;16.10;99.90;;;;;;4975742;28;20196;-73
2023/06/01 09:41:55;;;;;;;12.38;4.85;;;16.20;99.90;;;;;;4975081;28;20214;-74
2023/06/01 09:44:31;;;;;;;11.02;5.60;;;16.30;99.90;;;;;;4975331;28;20195;-73
2023/06/01 09:47:03;;;;;;;12.38;5.10;;;16.40;99.90;;;;;;4975566;28;20775;-74
2023/06/01 09:49:36;;;;;;;9.38;4.32;;;16.40;99.90;;;;;;4975358;28;20542;-73
2023/06/01 09:52:19;;;;;;;9.13;3.72;;;16.30;99.90;;;;;;4975812;28;20220;-74
2023/06/01 09:54:51;;;;;;;8.73;3.40;;;16.30;99.90;;;;;;4975301;28;20201;-73
2023/06/01 09:57:25;;;;;;;9.65;2.83;;;16.30;99.90;;;;;;4974734;28;20232;-74
2023/06/01 09:59:57;;;;;;;8.73;3.20;;;16.40;99.90;;;;;;4975022;28;20237;-74
2023/06/01 10:02:29;;;;;;;10.02;3.13;;;16.40;99.90;;;;;;4975370;28;20200;-75
2023/06/01 10:05:00;;;;;;;10.68;3.22;;;16.40;99.90;;;;;;4975197;28;20201;-74
2023/06/01 10:07:35;;;;;;;13.77;3.45;;;16.40;99.90;;;;;;4975431;28;20572;-74
2023/06/01 10:10:06;;;;;;;17.50;3.15;;;16.50;99.90;;;;;;4974927;28;20603;-73
2023/06/01 10:12:37;;;;;;;14.85;3.33;;;16.50;99.90;;;;;;4975112;28;20197;-73
2023/06/01 10:15:10;;;;;;;18.77;3.10;;;16.40;99.90;;;;;;4974333;28;20202;-73
2023/06/01 10:17:42;;;;;;;14.60;3.20;;;16.40;99.90;;;;;;4974416;28;20557;-73
2023/06/01 10:20:17;;;;;;;14.23;3.10;;;16.40;99.90;;;;;;4974966;28;20203;-73
2023/06/01 10:22:51;;;;;;;16.27;2.95;;;16.40;99.90;;;;;;4975118;28;20200;-73
2023/06/01 10:25:25;;;;;;;15.88;3.08;;;16.50;99.90;;;;;;4978141;28;20699;-73
2023/06/01 10:28:02;;;;;;;11.77;3.10;;;16.40;99.90;;;;;;4972264;28;20207;-73
2023/06/01 10:30:33;;;;;;;13.73;3.03;;;16.40;99.90;;;;;;4983432;28;20625;-73
2023/06/01 10:33:05;;;;;;;14.63;3.17;;;16.30;99.90;;;;;;4979207;28;20207;-74
2023/06/01 10:36:05;;;;;;;18.48;3.30;;;16.30;99.90;;;;;;4976565;28;20191;-73
2023/06/01 10:38:38;;;;;;;17.40;3.17;;;16.30;99.90;;;;;;4972032;28;20196;-73
2023/06/01 10:41:33;;;;;;;13.90;3.15;;;16.20;99.90;;;;;;4972155;28;20215;-73
2023/06/01 10:44:04;;;;;;;18.50;3.28;;;16.20;99.90;;;;;;4971531;28;20216;-73
2023/06/01 10:46:45;;;;;;;18.70;3.45;;;16.20;99.90;;;;;;4971265;28;20202;-73
2023/06/01 10:49:16;;;;;;;12.48;2.67;;;16.10;99.90;;;;;;4973936;28;20544;-73
2023/06/01 10:51:47;;;;;;;11.10;2.50;;;16.10;99.90;;;;;;4973789;28;20243;-73
2023/06/01 10:54:35;;;;;;;14.27;2.75;;;16.00;99.90;;;;;;4972787;28;20567;-73
2023/06/01 10:57:28;;;;;;;12.10;2.90;;;16.00;99.90;;;;;;4971289;28;20188;-73
2023/06/01 11:00:17;;;;;;;15.98;3.40;;;16.00;99.90;;;;;;4972921;28;20240;-73
2023/06/01 11:02:59;;;;;;;9.82;2.40;;;16.00;99.90;;;;;;4973804;28;20196;-73
2023/06/01 11:05:46;;;;;;;14.02;2.83;;;15.90;99.90;;;;;;4972482;28;20200;-73
2023/06/01 11:08:58;;;;;;;15.50;3.25;;;15.90;99.90;;;;;;4972121;28;20569;-74
2023/06/01 11:12:04;;;;;;;17.33;2.95;;;15.80;99.90;;;;;;4957706;28;20232;-73
2023/06/01 11:14:36;;;;;;;14.32;3.03;;;15.80;99.90;;;;;;4971749;28;20196;-73
2023/06/01 11:17:32;;;;;;;16.42;2.80;;;15.80;99.90;;;;;;4974467;28;20200;-73
2023/06/01 11:20:11;;;;;;;13.82;2.83;;;15.70;99.90;;;;;;4974848;28;20199;-72
2023/06/01 11:22:42;;;;;;;13.40;2.95;;;15.70;99.90;;;;;;4974366;28;20199;-74
2023/06/01 11:25:18;;;;;;;15.70;3.20;;;15.70;99.90;;;;;;4970919;28;20205;-74
2023/06/01 11:27:54;;;;;;;16.92;4.13;;;15.60;99.90;;;;;;4973403;28;20204;-73
2023/06/01 11:30:25;;;;;;;14.23;3.42;;;15.50;99.90;;;;;;4976317;28;20316;-74
2023/06/01 11:32:58;;;;;;;14.93;3.00;;;15.50;99.90;;;;;;4978217;28;20198;-73
2023/06/01 11:35:29;;;;;;;18.60;3.35;;;15.40;99.90;;;;;;4972999;28;20193;-73
2023/06/01 11:38:00;;;;;;;15.45;3.65;;;15.40;99.90;;;;;;4978095;28;20197;-73
2023/06/01 11:40:31;;;;;;;20.48;3.95;;;15.30;99.90;;;;;;4960934;28;20204;-73
2023/06/01 11:43:04;;;;;;;18.27;3.55;;;15.30;99.90;;;;;;4976867;28;20196;-73
2023/06/01 11:45:35;;;;;;;13.27;3.47;;;15.20;99.90;;;;;;4972174;28;20200;-73
2023/06/01 11:48:14;;;;;;;13.55;3.70;;;15.20;99.90;;;;;;4976416;28;20205;-74
2023/06/01 11:50:50;;;;;;;18.38;4.47;;;15.20;99.90;;;;;;4971580;28;20542;-74
2023/06/01 11:53:22;;;;;;;19.67;4.57;;;15.10;99.90;;;;;;4976984;28;20559;-73
2023/06/01 11:55:53;;;;;;;14.48;3.75;;;15.10;99.90;;;;;;4974482;28;20199;-74
2023/06/01 11:58:28;;;;;;;15.35;4.20;;;15.00;99.90;;;;;;4982055;28;20220;-73
2023/06/01 12:01:00;;;;;;;13.82;4.13;;;15.00;99.90;;;;;;4976845;28;20231;-73
2023/06/01 12:03:31;;;;;;;17.23;4.57;;;15.00;99.90;;;;;;4977641;28;20197;-73
2023/06/01 12:06:02;;;;;;;18.70;4.32;;;15.00;99.90;;;;;;4977576;28;20763;-73
2023/06/01 12:08:34;;;;;;;14.77;3.92;;;14.90;99.90;;;;;;4977487;28;20188;-73
2023/06/01 12:11:07;;;;;;;16.63;3.97;;;14.90;99.90;;;;;;4977589;28;20216;-74
2023/06/01 12:13:40;;;;;;;15.85;4.35;;;14.90;99.90;;;;;;4976437;28;20659;-74
2023/06/01 12:16:11;;;;;;;15.10;3.55;;;14.90;99.90;;;;;;4976507;28;20203;-73
2023/06/01 12:18:42;;;;;;;13.02;3.33;;;14.90;99.90;;;;;;4977450;28;20199;-74
2023/06/01 12:21:14;;;;;;;13.90;3.22;;;14.90;99.90;;;;;;4977381;28;20203;-74
2023/06/01 12:23:45;;;;;;;13.32;3.38;;;14.90;99.90;;;;;;4976213;28;20222;-73
2023/06/01 12:26:16;;;;;;;16.52;3.53;;;14.90;99.90;;;;;;4977604;28;20250;-74
2023/06/01 12:28:58;;;;;;;12.57;3.35;;;14.90;99.90;;;;;;4976659;28;20222;-74
2023/06/01 12:31:29;;;;;;;13.45;3.53;;;14.90;99.90;;;;;;4964151;28;20220;-73
2023/06/01 12:34:00;;;;;;;16.85;3.70;;;14.80;99.90;;;;;;4977119;28;20193;-74
2023/06/01 12:36:35;;;;;;;12.75;3.72;;;14.80;99.90;;;;;;4976069;28;20195;-73
2023/06/01 12:39:07;;;;;;;13.32;3.60;;;14.80;99.90;;;;;;4975876;28;20206;-73
2023/06/01 12:41:38;;;;;;;15.55;3.90;;;14.80;99.90;;;;;;4976965;28;20644;-73
2023/06/01 12:44:11;;;;;;;16.67;3.92;;;14.70;99.90;;;;;;4976821;28;20291;-73
2023/06/01 12:46:42;;;;;;;12.55;4.18;;;14.80;99.90;;;;;;4976527;28;20185;-74
2023/06/01 12:49:18;;;;;;;14.82;4.07;;;14.70;99.90;;;;;;4977203;28;20200;-73
2023/06/01 12:51:50;;;;;;;20.02;4.35;;;14.70;99.90;;;;;;4976079;28;20220;-74
2023/06/01 12:54:21;;;;;;;17.25;4.13;;;14.70;99.90;;;;;;4976513;28;20196;-74
2023/06/01 12:56:52;;;;;;;14.45;3.58;;;14.70;99.90;;;;;;4957699;28;20193;-74
2023/06/01 12:59:25;;;;;;;13.95;3.83;;;14.70;99.90;;;;;;4957227;28;20247;-73
2023/06/01 13:01:56;;;;;;;19.05;3.72;;;14.70;99.90;;;;;;4957305;28;20200;-74
2023/06/01 13:04:28;;;;;;;14.50;3.78;;;14.60;99.90;;;;;;4957316;28;20197;-75
2023/06/01 13:06:59;;;;;;;12.77;3.72;;;14.60;99.90;;;;;;4958467;28;20208;-74
2023/06/01 13:09:30;;;;;;;14.55;3.50;;;14.60;99.90;;;;;;4959286;28;20217;-74
2023/06/01 13:12:03;;;;;;;14.50;3.55;;;14.60;99.90;;;;;;4975585;28;20212;-72
2023/06/01 13:14:36;;;;;;;12.75;3.00;;;14.60;99.90;;;;;;4976686;28;20215;-74